createdAt,value
2022-09-18T00:01:28.169Z,99424.47
2022-09-18T00:03:57.404Z,99412.72
2022-09-18T00:06:26.438Z,99431.38
2022-09-18T00:08:54.622Z,99424.78
2022-09-18T00:11:24.058Z,99413.19
2022-09-18T00:13:51.191Z,99412.03
2022-09-18T00:16:20.018Z,99418.09
2022-09-18T00:18:46.568Z,99413.53
2022-09-18T00:21:18.981Z,99404.13
2022-09-18T00:23:46.121Z,99419.41
2022-09-18T00:26:14.662Z,99418.25
2022-09-18T00:28:41.331Z,99420.94
2022-09-18T00:31:14.064Z,99413.53
2022-09-18T00:33:40.781Z,99422.47
2022-09-18T00:36:10.326Z,99425.16
2022-09-18T00:38:37.455Z,99434.91
2022-09-18T00:41:08.063Z,99428.69
2022-09-18T00:43:37.082Z,99415.75
2022-09-18T00:46:22.288Z,99432.34
2022-09-18T00:48:57.660Z,99421.94
2022-09-18T00:51:25.839Z,99426.97
2022-09-18T00:54:07.991Z,99430.69
2022-09-18T00:56:35.315Z,99429.16
2022-09-18T00:59:02.407Z,99438.38
2022-09-18T01:01:29.002Z,99436.69
2022-09-18T01:03:55.525Z,99442.06
2022-09-18T01:06:42.596Z,99443.41
2022-09-18T01:09:25.134Z,99435.50
2022-09-18T01:12:33.238Z,99449.94
2022-09-18T01:15:22.308Z,99441.50
2022-09-18T01:18:12.123Z,99452.72
2022-09-18T01:20:53.478Z,99448.50
2022-09-18T01:23:23.138Z,99465.63
2022-09-18T01:26:01.531Z,99458.56
2022-09-18T01:28:35.993Z,99466.78
2022-09-18T01:31:08.716Z,99467.75
2022-09-18T01:33:38.148Z,99471.88
2022-09-18T01:36:09.297Z,99461.47
2022-09-18T01:38:41.170Z,99473.75
2022-09-18T01:41:38.317Z,99490.16
2022-09-18T01:44:14.364Z,99493.84
2022-09-18T01:46:44.408Z,99505.84
2022-09-18T01:49:14.619Z,99498.66
2022-09-18T01:51:55.741Z,99517.06
2022-09-18T01:54:27.147Z,99525.28
2022-09-18T01:57:18.717Z,99518.66
2022-09-18T02:00:09.565Z,99520.97
2022-09-18T02:03:02.678Z,99529.41
2022-09-18T02:05:37.789Z,99519.88
2022-09-18T02:08:30.147Z,99531.75
2022-09-18T02:11:06.569Z,99528.84
2022-09-18T02:13:40.037Z,99537.91
2022-09-18T02:16:13.400Z,99536.50
2022-09-18T02:18:45.818Z,99553.63
2022-09-18T02:21:16.983Z,99551.22
2022-09-18T02:23:44.427Z,99549.28
2022-09-18T02:26:13.954Z,99555.97
2022-09-18T02:28:41.810Z,99558.78
2022-09-18T02:31:08.626Z,99562.06
2022-09-18T02:33:36.850Z,99566.03
2022-09-18T02:36:09.534Z,99563.94
2022-09-18T02:38:59.634Z,99579.34
2022-09-18T02:41:47.470Z,99571.31
2022-09-18T02:44:18.609Z,99557.34
2022-09-18T02:47:01.616Z,99561.44
2022-09-18T02:49:59.693Z,99566.81
2022-09-18T02:52:46.338Z,99558.78
2022-09-18T02:55:18.809Z,99566.69
2022-09-18T02:58:18.949Z,99556.38
2022-09-18T03:00:47.717Z,99570.66
2022-09-18T03:03:15.615Z,99557.97
2022-09-18T03:05:42.142Z,99553.72
2022-09-18T03:08:08.665Z,99562.91
2022-09-18T03:10:35.151Z,99553.59
2022-09-18T03:13:01.615Z,99575.31
2022-09-18T03:15:28.177Z,99566.72
2022-09-18T03:17:54.642Z,99584.81
2022-09-18T03:20:21.311Z,99582.53
2022-09-18T03:22:47.790Z,99590.41
2022-09-18T03:25:15.413Z,99580.53
2022-09-18T03:27:42.966Z,99595.41
2022-09-18T03:30:10.174Z,99599.91
2022-09-18T03:32:36.655Z,99605.28
2022-09-18T03:35:03.201Z,99612.63
2022-09-18T03:37:29.664Z,99610.78
2022-09-18T03:39:56.186Z,99608.50
2022-09-18T03:42:22.771Z,99612.88
2022-09-18T03:44:49.329Z,99613.19
2022-09-18T03:47:15.784Z,99637.88
2022-09-18T03:49:42.279Z,99638.72
2022-09-18T03:52:08.755Z,99623.47
2022-09-18T03:54:35.200Z,99627.75
2022-09-18T03:57:01.692Z,99632.41
2022-09-18T03:59:28.155Z,99633.09
2022-09-18T04:01:54.774Z,99637.19
2022-09-18T04:04:21.265Z,99642.69
2022-09-18T04:06:47.750Z,99648.44
2022-09-18T04:09:14.270Z,99650.88
2022-09-18T04:11:40.777Z,99658.78
2022-09-18T04:14:07.238Z,99669.66
2022-09-18T04:16:34.219Z,99664.28
2022-09-18T04:19:00.761Z,99674.16
2022-09-18T04:21:27.236Z,99664.16
2022-09-18T04:23:53.749Z,99669.66
2022-09-18T04:26:20.223Z,99667.22
2022-09-18T04:28:46.739Z,99676.81
2022-09-18T04:31:13.439Z,99669.66
2022-09-18T04:33:39.997Z,99683.75
2022-09-18T04:36:07.058Z,99671.19
2022-09-18T04:38:33.734Z,99671.47
2022-09-18T04:41:00.784Z,99674.31
2022-09-18T04:43:28.227Z,99673.75
2022-09-18T04:45:55.298Z,99681.38
2022-09-18T04:48:22.716Z,99681.94
2022-09-18T04:50:49.702Z,99693.34
2022-09-18T04:53:16.611Z,99696.91
2022-09-18T04:55:44.962Z,99698.34
2022-09-18T04:58:12.594Z,99699.44
2022-09-18T05:00:39.379Z,99705.53
2022-09-18T05:03:07.071Z,99707.91
2022-09-18T05:05:33.786Z,99718.94
2022-09-18T05:08:01.459Z,99719.75
2022-09-18T05:10:28.260Z,99714.25
2022-09-18T05:12:54.838Z,99709.88
2022-09-18T05:15:22.223Z,99712.69
2022-09-18T05:17:48.745Z,99718.63
2022-09-18T05:20:15.375Z,99715.94
2022-09-18T05:22:47.045Z,99717.66
2022-09-18T05:25:13.597Z,99718.03
2022-09-18T05:27:40.106Z,99722.28
2022-09-18T05:30:07.433Z,99722.00
2022-09-18T05:32:33.975Z,99725.38
2022-09-18T05:35:01.000Z,99719.59
2022-09-18T05:37:27.494Z,99735.97
2022-09-18T05:39:54.032Z,99732.00
2022-09-18T05:42:20.679Z,99729.81
2022-09-18T05:44:47.303Z,99737.88
2022-09-18T05:47:13.856Z,99735.19
2022-09-18T05:49:40.337Z,99724.00
2022-09-18T05:52:06.804Z,99736.47
2022-09-18T05:54:36.185Z,99727.81
2022-09-18T05:57:02.684Z,99725.53
2022-09-18T05:59:29.373Z,99725.22
2022-09-18T06:01:56.053Z,99727.03
2022-09-18T06:04:22.593Z,99728.88
2022-09-18T06:06:49.064Z,99729.97
2022-09-18T06:09:15.550Z,99730.34
2022-09-18T06:11:42.102Z,99725.38
2022-09-18T06:14:09.018Z,99729.75
2022-09-18T06:16:39.900Z,99726.94
2022-09-18T06:19:08.615Z,99728.47
2022-09-18T06:21:35.361Z,99732.84
2022-09-18T06:24:02.079Z,99734.25
2022-09-18T06:26:28.816Z,99739.84
2022-09-18T06:28:55.292Z,99741.97
2022-09-18T06:31:21.810Z,99732.28
2022-09-18T06:33:49.151Z,99735.38
2022-09-18T06:36:16.377Z,99746.16
2022-09-18T06:38:42.878Z,99751.06
2022-09-18T06:41:10.361Z,99750.88
2022-09-18T06:43:36.902Z,99745.56
2022-09-18T06:46:04.538Z,99748.19
2022-09-18T06:48:31.619Z,99749.03
2022-09-18T06:50:59.545Z,99749.09
2022-09-18T06:53:26.437Z,99754.44
2022-09-18T06:55:53.355Z,99748.72
2022-09-18T06:58:20.301Z,99755.56
2022-09-18T07:00:46.925Z,99759.94
2022-09-18T07:03:13.574Z,99762.38
2022-09-18T07:05:47.918Z,99761.22
2022-09-18T07:08:14.520Z,99744.28
2022-09-18T07:10:41.200Z,99754.81
2022-09-18T07:13:07.789Z,99754.84
2022-09-18T07:15:34.827Z,99760.31
2022-09-18T07:18:03.178Z,99764.72
2022-09-18T07:20:30.009Z,99754.16
2022-09-18T07:22:58.831Z,99760.66
2022-09-18T07:25:27.111Z,99764.50
2022-09-18T07:27:54.016Z,99746.47
2022-09-18T07:30:21.613Z,99774.13
2022-09-18T07:32:48.953Z,99775.47
2022-09-18T07:35:15.458Z,99760.09
2022-09-18T07:37:41.957Z,99761.19
2022-09-18T07:40:09.694Z,99780.09
2022-09-18T07:42:36.397Z,99773.31
2022-09-18T07:45:03.709Z,99766.91
2022-09-18T07:47:30.225Z,99775.38
2022-09-18T07:49:56.808Z,99770.34
2022-09-18T07:52:23.382Z,99770.19
2022-09-18T07:54:49.951Z,99783.22
2022-09-18T07:57:16.476Z,99797.25
2022-09-18T07:59:43.017Z,99772.59
2022-09-18T08:02:11.484Z,99784.41
2022-09-18T08:04:38.041Z,99791.50
2022-09-18T08:07:04.570Z,99777.31
2022-09-18T08:09:31.282Z,99810.78
2022-09-18T08:11:58.210Z,99795.41
2022-09-18T08:14:28.726Z,99803.19
2022-09-18T08:16:55.934Z,99804.53
2022-09-18T08:19:22.519Z,99791.34
2022-09-18T08:21:49.085Z,99832.56
2022-09-18T08:24:17.421Z,99798.63
2022-09-18T08:26:44.377Z,99812.81
2022-09-18T08:29:10.884Z,99818.56
2022-09-18T08:31:37.513Z,99808.41
2022-09-18T08:34:04.160Z,99796.44
2022-09-18T08:36:30.661Z,99818.53
2022-09-18T08:38:57.335Z,99819.72
2022-09-18T08:41:43.004Z,99802.84
2022-09-18T08:44:24.408Z,99823.63
2022-09-18T08:47:01.962Z,99824.78
2022-09-18T08:50:02.879Z,99817.84
2022-09-18T08:52:34.145Z,99805.19
2022-09-18T08:55:09.483Z,99812.78
2022-09-18T08:57:38.960Z,99825.94
2022-09-18T09:00:16.091Z,99816.84
2022-09-18T09:02:50.625Z,99822.06
2022-09-18T09:05:27.984Z,99810.91
2022-09-18T09:08:32.810Z,99827.78
2022-09-18T09:11:51.934Z,99815.97
2022-09-18T09:14:55.510Z,99820.66
2022-09-18T09:17:35.641Z,99830.28
2022-09-18T09:20:11.330Z,99825.44
2022-09-18T09:23:02.104Z,99833.19
2022-09-18T09:25:40.663Z,99820.75
2022-09-18T09:28:19.807Z,99826.50
2022-09-18T09:30:52.411Z,99817.06
2022-09-18T09:33:31.116Z,99834.09
2022-09-18T09:36:07.190Z,99823.28
2022-09-18T09:38:39.398Z,99838.19
2022-09-18T09:41:22.769Z,99831.41
2022-09-18T09:43:56.883Z,99834.28
2022-09-18T09:46:47.310Z,99828.88
2022-09-18T09:49:25.138Z,99850.47
2022-09-18T09:51:56.595Z,99858.38
2022-09-18T09:54:23.352Z,99849.75
2022-09-18T09:57:15.171Z,99862.03
2022-09-18T09:59:46.357Z,99853.78
2022-09-18T10:02:36.860Z,99863.72
2022-09-18T10:05:25.686Z,99851.69
2022-09-18T10:08:13.094Z,99860.59
2022-09-18T10:10:58.134Z,99863.16
2022-09-18T10:13:31.024Z,99854.03
2022-09-18T10:16:12.854Z,99873.94
2022-09-18T10:18:46.054Z,99862.47
2022-09-18T10:21:21.282Z,99868.44
2022-09-18T10:23:53.078Z,99861.38
2022-09-18T10:26:34.763Z,99857.53
2022-09-18T10:29:02.369Z,99861.13
2022-09-18T10:31:53.705Z,99861.00
2022-09-18T10:34:40.874Z,99864.03
2022-09-18T10:37:29.375Z,99855.75
2022-09-18T10:40:01.499Z,99860.97
2022-09-18T10:42:36.480Z,99855.84
2022-09-18T10:45:20.103Z,99862.25
2022-09-18T10:47:46.662Z,99858.56
2022-09-18T10:50:13.305Z,99859.78
2022-09-18T10:52:41.782Z,99862.56
2022-09-18T10:55:08.367Z,99856.59
2022-09-18T10:57:40.471Z,99849.47
2022-09-18T11:00:13.162Z,99863.81
2022-09-18T11:02:45.707Z,99865.38
2022-09-18T11:05:39.854Z,99852.38
2022-09-18T11:08:19.284Z,99849.75
2022-09-18T11:10:51.427Z,99853.19
2022-09-18T11:13:25.971Z,99865.56
2022-09-18T11:15:57.003Z,99857.50
2022-09-18T11:18:27.303Z,99864.81
2022-09-18T11:20:57.180Z,99866.13
2022-09-18T11:23:37.641Z,99873.09
2022-09-18T11:26:12.302Z,99872.94
2022-09-18T11:28:39.877Z,99866.41
2022-09-18T11:31:15.870Z,99860.88
2022-09-18T11:33:49.622Z,99859.09
2022-09-18T11:36:24.714Z,99865.16
2022-09-18T11:38:53.034Z,99861.47
2022-09-18T11:41:40.527Z,99863.50
2022-09-18T11:44:22.847Z,99861.44
2022-09-18T11:46:52.208Z,99853.81
2022-09-18T11:49:44.424Z,99853.13
2022-09-18T11:52:16.034Z,99842.78
2022-09-18T11:54:52.737Z,99846.13
2022-09-18T11:57:41.991Z,99837.34
2022-09-18T12:00:28.166Z,99843.03
2022-09-18T12:03:13.067Z,99838.25
2022-09-18T12:05:39.577Z,99833.59
2022-09-18T12:08:27.191Z,99835.34
2022-09-18T12:11:12.561Z,99829.56
2022-09-18T12:13:45.731Z,99826.97
2022-09-18T12:16:37.298Z,99828.34
2022-09-18T12:19:12.837Z,99826.31
2022-09-18T12:22:09.366Z,99831.81
2022-09-18T12:24:35.978Z,99846.16
2022-09-18T12:27:27.984Z,99849.25
2022-09-18T12:30:00.406Z,99827.75
2022-09-18T12:33:04.617Z,99823.44
2022-09-18T12:36:00.131Z,99820.66
2022-09-18T12:38:41.752Z,99815.66
2022-09-18T12:41:45.876Z,99824.69
2022-09-18T12:44:48.439Z,99817.44
2022-09-18T12:47:33.518Z,99833.38
2022-09-18T12:50:22.187Z,99851.28
2022-09-18T12:53:26.185Z,99848.91
2022-09-18T12:56:17.771Z,99825.38
2022-09-18T12:59:16.283Z,99818.81
2022-09-18T13:01:45.635Z,99803.91
2022-09-18T13:04:47.166Z,99829.06
2022-09-18T13:07:21.094Z,99797.03
2022-09-18T13:10:28.519Z,99809.69
2022-09-18T13:13:12.260Z,99809.19
2022-09-18T13:15:46.438Z,99818.50
2022-09-18T13:18:26.267Z,99813.03
2022-09-18T13:20:55.636Z,99841.50
2022-09-18T13:23:28.729Z,99830.22
2022-09-18T13:25:57.398Z,99830.28
2022-09-18T13:28:25.884Z,99837.97
2022-09-18T13:31:14.092Z,99827.28
2022-09-18T13:33:51.905Z,99833.41
2022-09-18T13:36:28.641Z,99837.50
2022-09-18T13:38:59.707Z,99846.66
2022-09-18T13:41:27.346Z,99875.50
2022-09-18T13:43:55.409Z,99878.50
2022-09-18T13:46:40.579Z,99915.66
2022-09-18T13:49:37.400Z,99933.06
2022-09-18T13:52:31.738Z,99943.34
2022-09-18T13:55:02.282Z,99943.28
2022-09-18T13:57:30.440Z,99943.78
2022-09-18T14:00:07.983Z,99943.78
2022-09-18T14:02:37.164Z,99952.78
2022-09-18T14:05:39.785Z,99965.53
2022-09-18T14:08:30.178Z,99936.19
2022-09-18T14:11:14.972Z,99935.00
2022-09-18T14:13:47.516Z,99928.28
2022-09-18T14:16:26.999Z,99935.06
2022-09-18T14:18:58.395Z,99942.47
2022-09-18T14:21:38.959Z,99940.03
2022-09-18T14:24:27.389Z,99944.59
2022-09-18T14:27:21.534Z,99944.75
2022-09-18T14:29:49.235Z,99943.69
2022-09-18T14:32:18.773Z,99931.63
2022-09-18T14:34:45.434Z,99934.47
2022-09-18T14:37:17.785Z,99930.28
2022-09-18T14:39:45.137Z,99948.84
2022-09-18T14:42:13.847Z,99950.56
2022-09-18T14:44:47.759Z,99950.94
2022-09-18T14:47:21.353Z,99965.41
2022-09-18T14:49:49.250Z,99960.94
2022-09-18T14:52:25.537Z,99967.00
2022-09-18T14:54:54.658Z,99966.13
2022-09-18T14:57:28.842Z,99951.81
2022-09-18T14:59:58.554Z,99944.72
2022-09-18T15:02:36.437Z,99949.72
2022-09-18T15:05:10.617Z,99946.25
2022-09-18T15:07:39.922Z,99956.31
2022-09-18T15:10:09.401Z,99937.16
2022-09-18T15:12:37.087Z,99942.84
2022-09-18T15:15:44.054Z,99937.84
2022-09-18T15:18:27.537Z,99928.56
2022-09-18T15:20:56.848Z,99926.22
2022-09-18T15:23:26.812Z,99934.19
2022-09-18T15:25:56.689Z,99944.50
2022-09-18T15:28:26.840Z,99950.06
2022-09-18T15:30:59.401Z,99955.53
2022-09-18T15:33:27.440Z,99949.53
2022-09-18T15:35:55.838Z,99948.25
2022-09-18T15:38:36.235Z,99963.38
2022-09-18T15:41:22.062Z,99954.13
2022-09-18T15:43:50.357Z,99957.69
2022-09-18T15:46:25.976Z,99956.66
2022-09-18T15:48:53.040Z,99953.41
2022-09-18T15:51:28.982Z,99966.41
2022-09-18T15:54:10.532Z,99955.78
2022-09-18T15:56:39.881Z,99961.84
2022-09-18T15:59:38.655Z,99961.06
2022-09-18T16:02:29.173Z,99970.00
2022-09-18T16:04:56.340Z,99969.19
2022-09-18T16:07:28.072Z,99984.34
2022-09-18T16:09:55.031Z,99989.34
2022-09-18T16:12:30.378Z,99990.50
2022-09-18T16:15:16.903Z,99992.97
2022-09-18T16:17:46.289Z,100005.41
2022-09-18T16:20:41.362Z,100015.94
2022-09-18T16:23:28.243Z,100018.41
2022-09-18T16:26:30.743Z,100012.63
2022-09-18T16:29:01.324Z,100018.44
2022-09-18T16:31:33.363Z,100017.84
2022-09-18T16:34:03.198Z,100020.66
2022-09-18T16:36:31.235Z,100007.72
2022-09-18T16:39:01.441Z,100009.34
2022-09-18T16:41:29.646Z,100004.72
2022-09-18T16:43:56.480Z,100013.38
2022-09-18T16:46:31.340Z,100014.81
2022-09-18T16:48:57.893Z,100008.69
2022-09-18T16:51:24.371Z,100007.81
2022-09-18T16:53:50.918Z,100011.00
2022-09-18T16:56:24.842Z,100006.75
2022-09-18T16:58:52.257Z,100001.44
2022-09-18T17:01:23.128Z,99999.13
2022-09-18T17:03:50.786Z,99998.88
2022-09-18T17:06:18.984Z,100001.25
2022-09-18T17:08:46.920Z,99990.63
2022-09-18T17:11:13.722Z,100003.28
2022-09-18T17:13:40.246Z,99992.44
2022-09-18T17:16:06.982Z,99993.44
2022-09-18T17:18:34.984Z,99993.31
2022-09-18T17:21:02.979Z,99993.06
2022-09-18T17:23:30.675Z,99994.69
2022-09-18T17:26:09.066Z,99995.56
2022-09-18T17:28:36.884Z,99998.41
2022-09-18T17:31:18.388Z,100006.63
2022-09-18T17:33:45.730Z,100011.91
2022-09-18T17:36:14.753Z,100011.50
2022-09-18T17:38:42.295Z,100009.66
2022-09-18T17:41:11.997Z,100009.38
2022-09-18T17:43:39.549Z,100009.91
2022-09-18T17:46:08.666Z,100020.53
2022-09-18T17:48:35.253Z,100025.38
2022-09-18T17:51:04.764Z,100021.25
2022-09-18T17:53:33.474Z,100019.56
2022-09-18T17:56:00.911Z,100017.00
2022-09-18T17:58:28.697Z,100028.66
2022-09-18T18:00:56.165Z,100025.66
2022-09-18T18:03:23.155Z,100037.53
2022-09-18T18:05:51.720Z,100034.03
2022-09-18T18:08:18.696Z,100036.41
2022-09-18T18:10:45.816Z,100042.34
2022-09-18T18:13:13.417Z,100046.16
2022-09-18T18:15:40.158Z,100050.44
2022-09-18T18:18:07.477Z,100048.44
2022-09-18T18:20:34.106Z,100056.94
2022-09-18T18:23:00.644Z,100053.00
2022-09-18T18:25:27.251Z,100054.41
2022-09-18T18:27:57.054Z,100053.00
2022-09-18T18:30:24.642Z,100056.53
2022-09-18T18:32:52.038Z,100055.28
2022-09-18T18:35:19.650Z,100059.38
2022-09-18T18:37:46.667Z,100058.41
2022-09-18T18:40:13.397Z,100067.00
2022-09-18T18:42:39.929Z,100063.19
2022-09-18T18:45:07.246Z,100063.91
2022-09-18T18:47:33.982Z,100053.84
2022-09-18T18:50:00.553Z,100061.22
2022-09-18T18:52:27.082Z,100056.25
2022-09-18T18:54:53.622Z,100066.88
2022-09-18T18:57:21.612Z,100064.31
2022-09-18T18:59:48.093Z,100070.44
2022-09-18T19:02:14.691Z,100067.44
2022-09-18T19:04:43.053Z,100065.63
2022-09-18T19:07:10.817Z,100060.94
2022-09-18T19:09:37.299Z,100067.00
2022-09-18T19:12:04.148Z,100064.88
2022-09-18T19:14:33.282Z,100064.75
2022-09-18T19:17:00.121Z,100053.13
2022-09-18T19:19:28.395Z,100056.56
2022-09-18T19:21:59.517Z,100055.44
2022-09-18T19:24:27.001Z,100061.22
2022-09-18T19:26:54.049Z,100057.94
2022-09-18T19:29:21.945Z,100049.75
2022-09-18T19:31:49.306Z,100060.25
2022-09-18T19:34:18.857Z,100056.81
2022-09-18T19:36:47.185Z,100064.63
2022-09-18T19:39:13.794Z,100064.19
2022-09-18T19:41:49.058Z,100057.13
2022-09-18T19:44:33.624Z,100059.81
2022-09-18T19:47:06.616Z,100065.31
2022-09-18T19:49:37.190Z,100066.59
2022-09-18T19:52:13.853Z,100060.38
2022-09-18T19:54:40.335Z,100063.19
2022-09-18T19:57:06.822Z,100063.91
2022-09-18T19:59:33.330Z,100063.19
2022-09-18T20:01:59.894Z,100069.28
2022-09-18T20:04:29.008Z,100061.06
2022-09-18T20:06:55.482Z,100059.25
2022-09-18T20:09:22.470Z,100057.56
2022-09-18T20:11:49.207Z,100060.94
2022-09-18T20:14:16.050Z,100054.69
2022-09-18T20:16:42.534Z,100050.44
2022-09-18T20:19:09.010Z,100056.13
2022-09-18T20:21:35.523Z,100054.56
2022-09-18T20:24:02.193Z,100055.97
2022-09-18T20:26:28.994Z,100058.94
2022-09-18T20:28:55.620Z,100048.06
2022-09-18T20:31:23.911Z,100044.66
2022-09-18T20:33:57.570Z,100042.69
2022-09-18T20:36:25.651Z,100038.13
2022-09-18T20:38:57.815Z,100038.13
2022-09-18T20:41:28.062Z,100041.97
2022-09-18T20:43:54.939Z,100038.88
2022-09-18T20:46:22.024Z,100036.31
2022-09-18T20:48:53.078Z,100029.94
2022-09-18T20:51:19.853Z,100026.69
2022-09-18T20:53:46.527Z,100028.25
2022-09-18T20:56:15.571Z,100030.38
2022-09-18T20:58:42.499Z,100025.56
2022-09-18T21:01:11.374Z,100020.06
2022-09-18T21:03:40.529Z,100026.00
2022-09-18T21:06:23.557Z,100016.94
2022-09-18T21:08:53.629Z,100009.56
2022-09-18T21:11:30.985Z,100010.13
2022-09-18T21:14:00.817Z,100001.94
2022-09-18T21:16:29.974Z,100007.16
2022-09-18T21:18:59.323Z,99997.25
2022-09-18T21:21:27.586Z,100010.41
2022-09-18T21:24:02.171Z,100008.44
2022-09-18T21:26:32.973Z,99993.72
2022-09-18T21:29:05.175Z,99996.28
2022-09-18T21:31:36.546Z,100008.41
2022-09-18T21:34:04.506Z,99996.38
2022-09-18T21:36:34.840Z,100001.91
2022-09-18T21:39:01.349Z,100002.47
2022-09-18T21:41:27.855Z,99999.63
2022-09-18T21:43:57.494Z,99990.59
2022-09-18T21:46:24.222Z,99989.72
2022-09-18T21:48:54.398Z,99979.81
2022-09-18T21:51:21.401Z,99978.28
2022-09-18T21:53:48.352Z,99971.03
2022-09-18T21:56:20.056Z,99972.16
2022-09-18T21:58:47.821Z,99961.84
2022-09-18T22:01:22.538Z,99969.22
2022-09-18T22:03:52.261Z,99966.53
2022-09-18T22:06:25.127Z,99973.88
2022-09-18T22:08:54.728Z,99971.19
2022-09-18T22:11:25.065Z,99970.50
2022-09-18T22:13:52.650Z,99966.69
2022-09-18T22:16:31.670Z,99972.19
2022-09-18T22:18:58.866Z,99969.06
2022-09-18T22:21:31.487Z,99962.13
2022-09-18T22:24:06.727Z,99954.91
2022-09-18T22:26:36.212Z,99952.91
2022-09-18T22:29:05.803Z,99956.59
2022-09-18T22:31:33.202Z,99952.91
2022-09-18T22:34:00.469Z,99956.47
2022-09-18T22:36:27.291Z,99957.47
2022-09-18T22:38:54.771Z,99958.31
2022-09-18T22:41:21.357Z,99957.34
2022-09-18T22:43:48.183Z,99954.06
2022-09-18T22:46:16.448Z,99951.06
2022-09-18T22:48:43.630Z,99949.34
2022-09-18T22:51:13.282Z,99946.19
2022-09-18T22:53:45.735Z,99947.34
2022-09-18T22:56:14.258Z,99949.72
2022-09-18T22:58:41.982Z,99939.91
2022-09-18T23:01:14.501Z,99945.25
2022-09-18T23:03:41.833Z,99929.75
2022-09-18T23:06:09.050Z,99935.13
2022-09-18T23:08:37.399Z,99938.06
2022-09-18T23:11:11.718Z,99936.00
2022-09-18T23:13:39.951Z,99932.09
2022-09-18T23:16:11.738Z,99943.69
2022-09-18T23:18:38.474Z,99943.69
2022-09-18T23:21:11.421Z,99938.63
2022-09-18T23:23:40.057Z,99944.84
2022-09-18T23:26:12.329Z,99946.44
2022-09-18T23:28:41.795Z,99946.72
2022-09-18T23:31:11.036Z,99941.91
2022-09-18T23:33:38.713Z,99933.56
2022-09-18T23:36:06.283Z,99941.50
2022-09-18T23:38:33.154Z,99938.63
2022-09-18T23:41:04.787Z,99934.50
2022-09-18T23:43:33.031Z,99927.16
2022-09-18T23:46:00.043Z,99929.19
2022-09-18T23:48:27.555Z,99932.63
2022-09-18T23:50:55.097Z,99929.78
2022-09-18T23:53:23.229Z,99934.84
2022-09-18T23:55:49.975Z,99940.38
2022-09-18T23:58:17.265Z,99926.78
